Station: Cape Willoughby

  Atmospheric Gas Attenuation - ITU Rec 676-11   --------------- db/100km ---------------
Date Time Temp RH % AH g/m3 Dew Point Wind Direction Speed kph Gust kph Barometer mB Rainfall Since 9am 24GHz 47GHz 76GHz 122GHz 134GHz 241GHz
15 01:20 11.3 83 8.47 8.5 30 35 1018.5 7.6 19.4 26.6 40.8 107.0 100.3 344.7
15 01:10 11.3 83 8.47 8.5 32 37 1018.5 7.6 19.4 26.6 40.8 107.0 100.3 344.7
15 01:00 11.3 85 8.67 8.9 32 41 1018 7.6 19.9 26.9 41.6 109.1 103.0 354.2
15 00:50 11.4 86 8.83 9.1 26 32 1018.5 7.6 20.2 27.2 42.2 110.8 105.1 361.6
15 00:40 11.3 86 8.77 9 37 43 1018.5 7.6 20.1 27.1 42.0 110.3 104.4 359.2
15 00:30 11.4 87 8.93 9.3 28 37 1018.3 7.6 20.4 27.4 42.6 111.9 106.5 366.4
15 00:20 11.1 87 8.76 9 24 30 1018.7 7.6 20.1 27.2 42.1 110.5 104.6 359.7
15 00:10 10.7 89 8.74 8.9 33 35 1018.5 7.6 20.0 27.3 42.2 110.8 104.8 360.5
15 00:00 10.7 90 8.84 9.1 30 37 1018.1 7.6 20.3 27.4 42.6 111.9 106.2 365.2
14 23:50 10.7 90 8.84 9.1 33 39 1018.4 7.6 20.3 27.4 42.6 111.9 106.2 365.3
14 23:40 10.7 90 8.84 9.1 30 33 1018.5 7.6 20.3 27.4 42.6 111.9 106.2 365.4
14 23:30 10.8 90 8.9 9.2 30 37 1018.1 7.6 20.4 27.5 42.8 112.4 106.9 367.7
14 23:20 10.9 89 8.85 9.1 30 33 1018.5 7.6 20.3 27.4 42.6 111.8 106.1 364.9
14 23:10 10.9 91 9.05 9.5 32 35 1018.5 7.6 20.7 27.7 43.4 114.0 108.9 374.7
14 23:00 11 90 9.01 9.4 33 39 1018.4 7.6 20.6 27.6 43.2 113.4 108.2 372.2
14 22:50 10.8 90 8.9 9.2 33 37 1018.3 7.6 20.4 27.5 42.8 112.5 106.9 367.8
14 22:40 10.7 90 8.84 9.1 32 37 1018.4 7.6 20.3 27.4 42.6 111.9 106.2 365.3
14 22:30 10.8 90 8.9 9.2 30 37 1018 7.6 20.4 27.5 42.8 112.4 106.9 367.7
14 22:20 10.9 90 8.95 9.3 32 35 1018.1 7.6 20.5 27.5 43.0 112.9 107.4 369.7
14 22:10 10.8 90 8.9 9.2 30 33 1018 7.6 20.4 27.5 42.8 112.4 106.9 367.7
14 22:00 10.8 90 8.9 9.2 32 41 1017.4 7.6 20.4 27.5 42.8 112.4 106.8 367.5
14 21:50 11 90 9.01 9.4 32 35 1017.9 7.6 20.6 27.6 43.2 113.4 108.1 372.1
14 21:40 11 90 9.01 9.4 33 39 1017.8 7.6 20.6 27.6 43.2 113.4 108.1 372.0
14 21:30 10.7 90 8.84 9.1 33 43 1017.3 7.6 20.3 27.4 42.6 111.8 106.1 365.0
14 21:20 10.8 91 9 9.4 35 37 1017.6 7.6 20.6 27.6 43.2 113.5 108.2 372.4
14 21:10 10.7 91 8.94 9.3 33 37 1017.6 7.6 20.5 27.6 43.0 113.0 107.5 370.0
14 21:00 11 90 9.01 9.5 33 41 1017.7 7.6 20.6 27.6 43.2 113.4 108.1 372.0
14 20:50 10.8 91 9 9.4 30 35 1017.8 7.6 20.6 27.6 43.2 113.5 108.3 372.5
14 20:40 10.8 92 9.1 9.5 33 37 1017.6 7.6 20.8 27.8 43.7 114.7 109.6 377.4
14 20:30 11.1 93 9.37 10 32 43 1017.2 7.6 21.4 28.2 44.6 117.3 113.0 389.1
14 20:20 10.9 93 9.25 9.8 30 35 1017.5 7.6 21.1 28.0 44.2 116.2 111.6 384.2
14 20:10 10.9 92 9.15 9.6 33 39 1017.3 7.6 20.9 27.8 43.8 115.0 110.2 379.2
14 20:00 11.2 93 9.43 10.1 32 41 1016.8 7.6 21.5 28.2 44.8 117.7 113.6 391.4
14 19:50 11.1 93 9.37 10 32 35 1017.2 7.6 21.4 28.2 44.6 117.3 113.0 389.1
14 19:40 11 93 9.31 9.9 32 37 1017.1 7.6 21.3 28.1 44.4 116.7 112.3 386.6
14 19:30 10.9 93 9.25 9.9 32 37 1017 7.6 21.1 28.0 44.2 116.2 111.6 384.1
14 19:20 11 93 9.31 10 32 33 1016.9 7.6 21.3 28.1 44.4 116.7 112.2 386.5
14 19:10 11 93 9.31 10 32 35 1016.7 7.6 21.3 28.1 44.4 116.7 112.2 386.4
14 19:00 11 94 9.41 10.1 30 39 1016.3 7.4 21.5 28.2 44.8 117.8 113.6 391.3
14 18:50 10.9 93 9.25 9.9 32 35 1016.6 7.4 21.1 28.0 44.2 116.1 111.5 384.0
14 18:40 11.1 94 9.47 10.1 28 33 1016.5 7.4 21.6 28.3 45.0 118.3 114.3 393.8
14 18:30 11.2 95 9.63 10.4 28 35 1015.9 7.4 21.9 28.5 45.6 119.9 116.4 401.0
14 18:20 11.2 94 9.53 10.2 28 33 1016.2 7.4 21.7 28.4 45.2 118.8 115.0 396.2
14 18:10 11.2 94 9.53 10.2 26 30 1015.9 7.4 21.7 28.4 45.2 118.8 115.0 396.1
14 18:00 11.3 95 9.69 10.5 24 32 1015.4 7.4 22.1 28.6 45.8 120.4 117.0 403.4
14 17:50 11.3 95 9.69 10.5 24 30 1015.6 7.4 22.1 28.6 45.8 120.5 117.1 403.4
14 17:40 11.3 95 9.69 10.5 24 28 1015.4 7.4 22.1 28.6 45.8 120.4 117.0 403.4
14 17:30 11.3 95 9.69 10.5 24 32 1014.9 7.4 22.1 28.6 45.8 120.4 117.0 403.2
14 17:20 11.5 95 9.81 10.7 19 22 1015.2 7.4 22.3 28.7 46.2 121.5 118.4 408.2
14 17:10 11.4 95 9.75 10.6 22 26 1015 7.4 22.2 28.6 46.0 120.9 117.7 405.7
14 17:00 11.5 95 9.81 10.7 20 26 1014.4 7.4 22.3 28.7 46.2 121.4 118.4 408.0
14 16:50 11.5 95 9.81 10.7 20 22 1014.7 7.4 22.3 28.7 46.2 121.4 118.4 408.1
14 16:40 11.5 95 9.81 10.7 19 22 1014.6 7.4 22.3 28.7 46.2 121.4 118.4 408.0
14 16:30 11.6 95 9.88 10.8 22 28 1014.1 7.4 22.5 28.8 46.4 122.0 119.2 410.8
14 16:20 11.7 95 9.94 10.9 24 26 1014.4 7.4 22.6 28.8 46.6 122.6 119.9 413.4
14 16:10 11.7 95 9.94 10.9 22 24 1014.3 7.4 22.6 28.8 46.6 122.6 119.9 413.3
14 16:00 11.8 95 10 11 19 20 1014.3 7.4 22.7 28.9 46.8 123.1 120.6 415.8
14 15:50 11.9 95 10.06 11.1 22 24 1014.1 7.4 22.8 29.0 47.0 123.6 121.3 418.2
14 15:40 11.9 95 10.06 11.1 20 24 1014.1 7.4 22.8 29.0 47.0 123.6 121.3 418.2
14 15:30 12 95 10.13 11.2 20 24 1013.5 7.4 23.0 29.0 47.2 124.2 122.1 420.9
14 15:20 12 95 10.13 11.2 19 22 1013.9 7.4 23.0 29.1 47.2 124.2 122.1 421.1
14 15:10 12.1 95 10.19 11.3 19 20 1013.7 7.4 23.1 29.1 47.4 124.8 122.8 423.5
14 15:00 12.1 95 10.19 11.3 19 24 1013.1 7.4 23.1 29.1 47.4 124.7 122.7 423.3
14 14:50 12.1 95 10.19 11.3 17 20 1013.4 7.4 23.1 29.1 47.4 124.7 122.7 423.4
14 14:40 12.2 95 10.25 11.4 22 24 1013.3 7.4 23.2 29.2 47.6 125.2 123.4 425.8
14 14:30 12.3 95 10.32 11.5 20 26 1012.8 7.4 23.4 29.2 47.8 125.8 124.2 428.6
14 14:20 12.2 95 10.25 11.4 22 26 1013.3 7.4 23.2 29.2 47.6 125.2 123.4 425.8
14 14:10 12.1 95 10.19 11.3 26 30 1013.2 7.4 23.1 29.1 47.4 124.7 122.7 423.3
14 14:00 12.2 95 10.25 11.4 24 30 1012.8 7.4 23.2 29.2 47.6 125.2 123.4 425.6
14 13:50 12.2 95 10.25 11.5 22 26 1013.3 7.4 23.2 29.2 47.6 125.2 123.4 425.8
14 13:40 12.3 95 10.32 11.6 26 28 1013.3 7.4 23.4 29.3 47.8 125.9 124.3 428.7
14 13:30 12.3 96 10.43 11.7 26 30 1012.8 7.4 23.6 29.4 48.3 127.1 125.8 434.1
14 13:20 12.5 95 10.45 11.7 28 30 1013.1 7.4 23.6 29.4 48.3 127.1 125.8 434.1
14 13:10 12.6 95 10.51 11.8 22 28 1012.9 7.4 23.8 29.5 48.5 127.6 126.5 436.4
14 13:00 13 96 10.89 12.4 24 30 1012.6 7.4 24.6 30.0 49.9 131.3 131.2 453.2
14 12:50 12.9 95 10.71 12.2 24 26 1013.1 7.4 24.2 29.7 49.2 129.4 128.9 444.8
14 12:40 12.5 95 10.45 11.8 24 26 1013.1 7.4 23.6 29.4 48.3 127.1 125.8 434.1
14 12:30 13 96 10.89 12.4 22 28 1012.8 7.4 24.6 30.0 49.9 131.3 131.3 453.2
14 12:20 12.9 95 10.71 12.2 17 22 1013.4 7.4 24.2 29.8 49.2 129.5 128.9 444.9
14 12:10 12.2 95 10.25 11.5 15 19 1013.7 7.4 23.2 29.2 47.6 125.3 123.5 425.9
14 12:00 12.6 97 10.73 12.1 20 24 1013.3 7.4 24.2 29.9 49.5 130.2 129.7 447.7
14 11:50 12.6 97 10.73 12.1 19 24 1013.6 7.4 24.2 29.9 49.5 130.2 129.7 447.8
14 11:40 12.5 97 10.67 12 30 33 1013.4 7.4 24.1 29.8 49.3 129.7 129.0 445.3
14 11:30 12.4 97 10.6 11.9 28 33 1013.1 7.4 24.0 29.7 49.0 129.0 128.1 442.2
14 11:20 12.2 97 10.47 11.7 28 30 1013.6 7.2 23.7 29.6 48.6 127.9 126.6 436.9
14 11:10 12.1 97 10.4 11.6 28 33 1013.6 7.2 23.5 29.5 48.3 127.2 125.8 434.0
14 11:00 12.1 97 10.4 11.6 33 37 1013.8 6.6 23.5 29.5 48.3 127.2 125.8 434.0
14 10:50 12 97 10.34 11.5 32 35 1013.8 5.2 23.4 29.4 48.1 126.7 125.1 431.6
14 10:40 12 95 10.13 11.3 35 39 1013.9 5 23.0 29.1 47.2 124.2 122.1 421.1
14 10:30 12 96 10.23 11.4 30 35 1013.6 5 23.2 29.2 47.6 125.4 123.5 426.0
14 10:20 12.3 95 10.32 11.6 30 33 1014 4.6 23.4 29.3 47.9 126.0 124.3 429.0
14 10:10 12.3 95 10.32 11.6 28 32 1014 3.2 23.4 29.3 47.9 126.0 124.3 429.0
14 10:00 12.5 96 10.56 11.9 28 33 1013.4 0.8 23.9 29.6 48.8 128.4 127.4 439.7
14 09:50 12.6 97 10.73 12.1 24 32 1013.8 0.8 24.2 29.9 49.5 130.3 129.7 447.8
14 09:40 12.5 95 10.45 11.8 28 32 1013.8 0.8 23.6 29.4 48.3 127.1 125.9 434.3
14 09:30 12.5 95 10.45 11.8 26 30 1013.7 0.6 23.6 29.4 48.3 127.1 125.8 434.3
14 09:20 12.4 95 10.38 11.7 28 32 1013.7 0.4 23.5 29.4 48.1 126.5 125.0 431.3
14 09:10 12.3 95 10.32 11.6 30 32 1013.7 0.2 23.4 29.3 47.9 125.9 124.3 428.9
14 09:00 12.2 95 10.25 11.5 30 33 1013.7 0 23.2 29.2 47.6 125.3 123.5 425.9
14 08:50 12.2 95 10.25 11.5 30 32 1013.6 17.2 23.2 29.2 47.6 125.3 123.5 425.9

Last Refresh: 15-Jun-2024 01:31:09

Bureau of Meteorology